Time;durP1;ratioP1;P1;durP2;ratioP2;P2;SDS_P1;SDS_P2;PMS_P1;PMS_P2;Temp;Humidity;BMP_temperature;BMP_pressure;BME280_temperature;BME280_humidity;BME280_pressure;Samples;Min_cycle;Max_cycle;Signal;HPM_P1;HPM_P2
2023/11/28 00:01:52;;;;;;;0.30;0.30;;;4.40;99.90;;;;;;5035482;28;20029;-74
2023/11/28 00:04:18;;;;;;;0.40;0.40;;;4.30;99.90;;;;;;5035271;28;20110;-72
2023/11/28 00:06:43;;;;;;;0.82;0.68;;;4.30;99.90;;;;;;5035835;28;20101;-74
2023/11/28 00:09:10;;;;;;;0.10;0.10;;;4.30;99.90;;;;;;5052008;28;20025;-73
2023/11/28 00:11:36;;;;;;;0.63;0.63;;;4.40;99.90;;;;;;5035887;28;20128;-72
2023/11/28 00:14:02;;;;;;;0.10;0.10;;;4.40;99.90;;;;;;5035016;28;20140;-72
2023/11/28 00:16:27;;;;;;;0.40;0.40;;;4.40;99.90;;;;;;5053467;28;20032;-73
2023/11/28 00:18:53;;;;;;;0.28;0.28;;;4.40;99.90;;;;;;5051874;28;20057;-73
2023/11/28 00:21:19;;;;;;;0.20;0.20;;;4.40;99.90;;;;;;5035562;28;20031;-73
2023/11/28 00:23:45;;;;;;;0.32;0.30;;;4.40;99.90;;;;;;5034441;28;20040;-72
2023/11/28 00:26:10;;;;;;;0.75;0.40;;;4.40;99.90;;;;;;5053354;28;20400;-73
2023/11/28 00:28:36;;;;;;;0.30;0.30;;;4.40;99.90;;;;;;5017130;28;20017;-73
2023/11/28 00:31:02;;;;;;;0.57;0.40;;;4.40;99.90;;;;;;5053014;28;20033;-72
2023/11/28 00:33:28;;;;;;;0.15;0.15;;;4.40;99.90;;;;;;5051810;28;20021;-72
2023/11/28 00:35:54;;;;;;;0.35;0.28;;;4.40;99.90;;;;;;5035244;28;20043;-72
2023/11/28 00:38:19;;;;;;;0.00;0.00;;;4.40;99.90;;;;;;5034601;28;20107;-73
2023/11/28 00:40:45;;;;;;;1.05;1.02;;;4.40;99.90;;;;;;5051398;28;20540;-73
2023/11/28 00:43:11;;;;;;;0.20;0.20;;;4.40;99.90;;;;;;5040318;28;20441;-72
2023/11/28 00:45:39;;;;;;;0.28;0.28;;;4.40;99.90;;;;;;5051160;28;20037;-73
2023/11/28 00:48:05;;;;;;;0.40;0.35;;;4.50;99.90;;;;;;5034428;28;20033;-73
2023/11/28 00:50:31;;;;;;;1.55;0.30;;;4.50;99.90;;;;;;5034708;28;20040;-73
2023/11/28 00:52:57;;;;;;;0.73;0.52;;;4.50;99.90;;;;;;5018358;28;20029;-73
2023/11/28 00:55:23;;;;;;;0.35;0.35;;;4.40;99.90;;;;;;5017452;28;20025;-73
2023/11/28 00:57:50;;;;;;;4.72;0.73;;;4.50;99.90;;;;;;5034589;28;20045;-73
2023/11/28 01:00:17;;;;;;;0.10;0.10;;;4.50;99.90;;;;;;5053878;28;20021;-72
2023/11/28 01:02:42;;;;;;;1.73;1.05;;;4.50;99.90;;;;;;5052491;28;20544;-73
2023/11/28 01:05:09;;;;;;;0.43;0.43;;;4.50;99.90;;;;;;5017651;28;20025;-73
2023/11/28 01:07:35;;;;;;;0.25;0.25;;;4.50;99.90;;;;;;5017710;28;20488;-72
2023/11/28 01:10:01;;;;;;;0.35;0.25;;;4.50;99.90;;;;;;5034404;28;20481;-73
2023/11/28 01:12:27;;;;;;;1.05;0.85;;;4.60;99.90;;;;;;5034392;28;20039;-73
2023/11/28 01:14:52;;;;;;;0.13;0.13;;;4.50;99.90;;;;;;5051762;28;20104;-72
2023/11/28 01:17:18;;;;;;;1.00;0.50;;;4.60;99.90;;;;;;5052208;28;20025;-73
2023/11/28 01:19:44;;;;;;;3.08;1.23;;;4.60;99.90;;;;;;5016319;28;20405;-73
2023/11/28 01:22:11;;;;;;;0.80;0.63;;;4.60;99.90;;;;;;5033699;28;20040;-73
2023/11/28 01:24:39;;;;;;;0.45;0.45;;;4.60;99.90;;;;;;5017378;28;20436;-73
2023/11/28 01:27:05;;;;;;;0.30;0.30;;;4.60;99.90;;;;;;5034206;28;20500;-74
2023/11/28 01:29:33;;;;;;;1.45;0.30;;;4.60;99.90;;;;;;5033002;28;20120;-73
2023/11/28 01:31:59;;;;;;;1.27;0.65;;;4.60;99.90;;;;;;5034250;28;20025;-74
2023/11/28 01:34:25;;;;;;;1.33;1.15;;;4.60;99.90;;;;;;5038245;28;20039;-74
2023/11/28 01:36:51;;;;;;;4.07;1.23;;;4.60;99.90;;;;;;5033695;28;20028;-74
2023/11/28 01:39:18;;;;;;;2.15;0.25;;;4.60;99.90;;;;;;5016765;28;20509;-74
2023/11/28 01:41:48;;;;;;;0.40;0.40;;;4.50;99.90;;;;;;5032991;28;20123;-73
2023/11/28 01:44:15;;;;;;;0.52;0.52;;;4.50;99.90;;;;;;5033514;28;20389;-74
2023/11/28 01:46:42;;;;;;;0.45;0.45;;;4.60;99.90;;;;;;5031958;28;20088;-74
2023/11/28 01:49:08;;;;;;;0.75;0.75;;;4.50;99.90;;;;;;5033292;28;20493;-74
2023/11/28 01:51:37;;;;;;;0.30;0.30;;;4.50;99.90;;;;;;5033805;28;20029;-74
2023/11/28 01:54:06;;;;;;;1.05;0.95;;;4.60;99.90;;;;;;5033247;28;20031;-75
2023/11/28 01:56:33;;;;;;;0.85;0.63;;;4.60;99.90;;;;;;5035446;28;20473;-75
2023/11/28 01:59:00;;;;;;;2.70;0.98;;;4.50;99.90;;;;;;5032819;28;20037;-75
2023/11/28 02:01:28;;;;;;;2.10;1.00;;;4.60;99.90;;;;;;5051026;28;20029;-74
2023/11/28 02:03:54;;;;;;;0.35;0.25;;;4.50;99.90;;;;;;5031339;28;20084;-75
2023/11/28 02:06:19;;;;;;;1.30;1.20;;;4.60;99.90;;;;;;5029779;28;20075;-75
2023/11/28 02:08:45;;;;;;;0.38;0.38;;;4.50;99.90;;;;;;5037944;28;20386;-75
2023/11/28 02:11:12;;;;;;;0.32;0.32;;;4.60;99.90;;;;;;5032184;28;20025;-75
2023/11/28 02:13:38;;;;;;;1.88;0.80;;;4.50;99.90;;;;;;5015237;28;20371;-75
2023/11/28 02:16:15;;;;;;;0.38;0.30;;;4.60;99.90;;;;;;5029749;28;20036;-75
2023/11/28 02:18:42;;;;;;;0.35;0.35;;;4.50;99.90;;;;;;5048494;28;20029;-75
2023/11/28 02:21:13;;;;;;;0.85;0.70;;;4.50;99.90;;;;;;5029766;28;20025;-76
2023/11/28 02:23:39;;;;;;;0.77;0.70;;;4.60;99.90;;;;;;5050482;28;20116;-75
2023/11/28 02:26:25;;;;;;;0.13;0.13;;;4.60;99.90;;;;;;5029699;28;20022;-75
2023/11/28 02:28:56;;;;;;;0.52;0.50;;;4.60;99.90;;;;;;5032269;28;20025;-75
2023/11/28 02:31:22;;;;;;;0.20;0.20;;;4.60;99.90;;;;;;5029838;28;20025;-74
2023/11/28 02:33:48;;;;;;;0.20;0.20;;;4.60;99.90;;;;;;5042597;28;20368;-75
2023/11/28 02:36:14;;;;;;;1.85;0.90;;;4.50;99.90;;;;;;5033571;28;20119;-75
2023/11/28 02:38:41;;;;;;;0.10;0.10;;;4.50;99.90;;;;;;5033622;28;20048;-75
2023/11/28 02:41:07;;;;;;;0.65;0.65;;;4.50;99.90;;;;;;5033777;28;20021;-74
2023/11/28 02:43:33;;;;;;;0.10;0.10;;;4.60;99.90;;;;;;5051410;28;20039;-75
2023/11/28 02:45:59;;;;;;;1.15;0.50;;;4.60;99.90;;;;;;5033703;28;20018;-75
2023/11/28 02:48:24;;;;;;;0.65;0.43;;;4.60;99.90;;;;;;5031964;28;20028;-74
2023/11/28 02:50:50;;;;;;;0.20;0.20;;;4.60;99.90;;;;;;5037092;28;20481;-74
2023/11/28 02:53:17;;;;;;;0.13;0.13;;;4.60;99.90;;;;;;5017213;28;20033;-74
2023/11/28 02:55:44;;;;;;;0.47;0.43;;;4.60;99.90;;;;;;5019228;28;20030;-74
2023/11/28 02:58:10;;;;;;;0.22;0.20;;;4.60;99.90;;;;;;5033085;28;20036;-74
2023/11/28 03:00:36;;;;;;;0.20;0.20;;;4.60;99.90;;;;;;5053138;28;20037;-75
2023/11/28 03:03:01;;;;;;;1.08;0.50;;;4.60;99.90;;;;;;5033018;28;20117;-74
2023/11/28 03:05:27;;;;;;;0.20;0.10;;;4.70;99.90;;;;;;5009071;28;20061;-74
2023/11/28 03:07:53;;;;;;;0.17;0.17;;;4.60;99.90;;;;;;5040959;28;20021;-75
2023/11/28 03:10:19;;;;;;;0.45;0.30;;;4.60;99.90;;;;;;5016076;28;20036;-75
2023/11/28 03:12:45;;;;;;;0.20;0.20;;;4.60;99.90;;;;;;5035247;28;20029;-75
2023/11/28 03:15:11;;;;;;;0.30;0.30;;;4.70;99.90;;;;;;5054504;28;20108;-75
2023/11/28 03:17:37;;;;;;;0.28;0.28;;;4.60;99.90;;;;;;5034081;28;20033;-74
2023/11/28 03:20:04;;;;;;;0.17;0.17;;;4.60;99.90;;;;;;5035539;28;20036;-75
2023/11/28 03:22:30;;;;;;;0.50;0.50;;;4.70;99.90;;;;;;5025110;28;20440;-75
2023/11/28 03:25:07;;;;;;;0.30;0.30;;;4.70;99.90;;;;;;5016231;28;20029;-75
2023/11/28 03:27:32;;;;;;;1.13;0.38;;;4.70;99.90;;;;;;5030251;28;20026;-75
2023/11/28 03:29:58;;;;;;;0.98;0.70;;;4.70;99.90;;;;;;5032667;28;20547;-75
2023/11/28 03:32:24;;;;;;;2.25;0.73;;;4.70;99.90;;;;;;5028782;28;20463;-75
2023/11/28 03:34:50;;;;;;;0.32;0.32;;;4.70;99.90;;;;;;5052265;28;20028;-75
2023/11/28 03:37:15;;;;;;;0.63;0.60;;;4.70;99.90;;;;;;5054054;28;20397;-75
2023/11/28 03:39:44;;;;;;;2.13;1.50;;;4.70;99.90;;;;;;5043844;28;20036;-75
2023/11/28 03:42:10;;;;;;;1.80;1.27;;;4.70;99.90;;;;;;5033017;28;20033;-75
2023/11/28 03:44:36;;;;;;;1.77;1.67;;;4.70;99.90;;;;;;5049455;28;20532;-75
2023/11/28 03:47:02;;;;;;;1.30;0.75;;;4.80;99.90;;;;;;5032912;28;20529;-75
2023/11/28 03:49:29;;;;;;;1.33;1.17;;;4.80;99.90;;;;;;5015330;28;20155;-75
2023/11/28 03:51:55;;;;;;;0.20;0.20;;;4.80;99.90;;;;;;5032369;28;20493;-75
2023/11/28 03:54:21;;;;;;;0.10;0.10;;;4.80;99.90;;;;;;5048498;28;20032;-75
2023/11/28 03:56:47;;;;;;;0.98;0.35;;;4.80;99.90;;;;;;5018688;28;20033;-75
2023/11/28 03:59:13;;;;;;;0.10;0.10;;;4.90;99.90;;;;;;5031866;28;20030;-75
2023/11/28 04:01:38;;;;;;;0.05;0.05;;;4.90;99.90;;;;;;5032061;28;20087;-75
2023/11/28 04:04:04;;;;;;;0.20;0.20;;;4.90;99.90;;;;;;5035847;28;20450;-75
2023/11/28 04:06:30;;;;;;;1.00;0.57;;;4.90;99.90;;;;;;5042237;28;20044;-73
2023/11/28 04:08:56;;;;;;;0.52;0.52;;;5.00;99.90;;;;;;5031995;28;20026;-73
2023/11/28 04:11:22;;;;;;;2.08;0.77;;;5.00;99.90;;;;;;5030808;28;20029;-75
2023/11/28 04:13:48;;;;;;;0.60;0.60;;;5.00;99.90;;;;;;5017290;28;20029;-75
2023/11/28 04:16:18;;;;;;;0.35;0.35;;;5.10;99.90;;;;;;5051170;28;20044;-75
2023/11/28 04:18:50;;;;;;;2.72;1.17;;;5.10;99.90;;;;;;5015648;28;20090;-75
2023/11/28 04:21:19;;;;;;;0.30;0.30;;;5.10;99.90;;;;;;5031597;28;20445;-75
2023/11/28 04:23:46;;;;;;;2.08;1.30;;;5.00;99.90;;;;;;5032379;28;20025;-75
2023/11/28 04:26:12;;;;;;;0.40;0.40;;;5.00;99.90;;;;;;5031219;28;20044;-74
2023/11/28 04:28:37;;;;;;;0.28;0.28;;;4.80;99.90;;;;;;5048679;28;20373;-74
2023/11/28 04:31:04;;;;;;;0.28;0.28;;;4.70;99.90;;;;;;5051223;28;20021;-74
2023/11/28 04:33:29;;;;;;;0.10;0.10;;;4.60;99.90;;;;;;5018379;28;20037;-75
2023/11/28 04:35:55;;;;;;;0.10;0.10;;;4.50;99.90;;;;;;5050903;28;20120;-75
2023/11/28 04:38:22;;;;;;;0.10;0.10;;;4.50;99.90;;;;;;5034767;28;20022;-74
2023/11/28 04:40:48;;;;;;;0.10;0.10;;;4.40;99.90;;;;;;5033515;28;20035;-76
2023/11/28 04:43:13;;;;;;;0.03;0.03;;;4.30;99.90;;;;;;5028318;28;20037;-75
2023/11/28 04:45:39;;;;;;;0.10;0.10;;;4.30;99.90;;;;;;4999520;28;20030;-75
2023/11/28 04:48:05;;;;;;;1.52;0.20;;;4.20;99.90;;;;;;5023798;28;20429;-74
2023/11/28 04:50:31;;;;;;;3.72;0.45;;;4.20;99.90;;;;;;5049604;28;20090;-74
2023/11/28 04:52:56;;;;;;;0.30;0.30;;;4.10;99.90;;;;;;5052364;28;20036;-74
2023/11/28 04:55:22;;;;;;;1.70;1.02;;;4.10;99.90;;;;;;5031445;28;20037;-74
2023/11/28 04:57:48;;;;;;;0.30;0.30;;;4.00;99.90;;;;;;5032380;28;22177;-75
2023/11/28 05:00:15;;;;;;;0.22;0.22;;;4.00;99.90;;;;;;5022222;28;20044;-76
2023/11/28 05:02:41;;;;;;;0.30;0.25;;;4.00;99.90;;;;;;5032087;28;20025;-75
2023/11/28 05:05:08;;;;;;;0.20;0.20;;;3.90;99.90;;;;;;5021950;28;20025;-74
2023/11/28 05:07:34;;;;;;;0.17;0.17;;;3.90;99.90;;;;;;5048584;28;20037;-73
2023/11/28 05:10:00;;;;;;;0.75;0.20;;;3.90;99.90;;;;;;5029009;28;20013;-74
2023/11/28 05:12:25;;;;;;;0.10;0.10;;;3.80;99.90;;;;;;5029018;28;20091;-73
2023/11/28 05:14:51;;;;;;;0.30;0.20;;;3.80;99.90;;;;;;5043835;28;20431;-75
2023/11/28 05:17:18;;;;;;;0.17;0.17;;;3.80;99.90;;;;;;5030442;28;20021;-74
2023/11/28 05:19:43;;;;;;;0.10;0.10;;;3.70;99.90;;;;;;5032833;28;20039;-75
2023/11/28 05:22:09;;;;;;;0.20;0.20;;;3.60;99.90;;;;;;5013005;28;20113;-74
2023/11/28 05:24:35;;;;;;;0.20;0.20;;;3.60;99.90;;;;;;5049342;28;20110;-75
2023/11/28 05:27:01;;;;;;;1.90;0.52;;;3.40;99.90;;;;;;5053399;28;20469;-75
2023/11/28 05:29:27;;;;;;;0.47;0.47;;;3.10;99.90;;;;;;5032942;28;20026;-74
2023/11/28 05:31:55;;;;;;;0.30;0.30;;;3.00;99.90;;;;;;5035997;28;20037;-76
2023/11/28 05:34:21;;;;;;;0.55;0.50;;;2.90;99.90;;;;;;5013351;28;20037;-76
2023/11/28 05:36:47;;;;;;;0.50;0.50;;;2.90;99.90;;;;;;5025955;28;20473;-75
2023/11/28 05:39:12;;;;;;;0.10;0.10;;;2.80;99.90;;;;;;5048764;28;20048;-75
2023/11/28 05:41:38;;;;;;;0.77;0.57;;;2.80;99.90;;;;;;5045368;28;20037;-76
2023/11/28 05:44:05;;;;;;;0.45;0.45;;;2.80;99.90;;;;;;5048148;28;20025;-76
2023/11/28 05:46:31;;;;;;;0.50;0.50;;;2.70;99.90;;;;;;5024169;28;20041;-76
2023/11/28 05:48:57;;;;;;;1.90;0.68;;;2.70;99.90;;;;;;4996178;28;20084;-75
2023/11/28 05:51:22;;;;;;;1.00;0.50;;;2.70;99.90;;;;;;5040350;28;20048;-76
2023/11/28 05:53:48;;;;;;;0.63;0.63;;;2.70;99.90;;;;;;5032361;28;20108;-76
2023/11/28 05:56:14;;;;;;;0.93;0.65;;;2.70;99.90;;;;;;5049475;28;20065;-74
2023/11/28 05:58:40;;;;;;;0.20;0.10;;;2.60;99.90;;;;;;5049523;28;20025;-75
2023/11/28 06:01:06;;;;;;;0.30;0.30;;;2.50;99.90;;;;;;5014903;28;20052;-75
2023/11/28 06:03:32;;;;;;;0.30;0.25;;;2.50;99.90;;;;;;5027020;28;20496;-75
2023/11/28 06:05:59;;;;;;;5.28;0.60;;;2.50;99.90;;;;;;5016656;28;20108;-75
2023/11/28 06:08:25;;;;;;;0.80;0.68;;;2.40;99.90;;;;;;5019601;28;20032;-75
2023/11/28 06:10:51;;;;;;;0.32;0.32;;;2.40;99.90;;;;;;5045024;28;20030;-75
2023/11/28 06:13:17;;;;;;;0.20;0.20;;;2.30;99.90;;;;;;5036491;28;20086;-75
2023/11/28 06:15:42;;;;;;;4.53;0.80;;;2.30;99.90;;;;;;5036605;28;20021;-76
2023/11/28 06:18:10;;;;;;;2.13;1.85;;;2.30;99.90;;;;;;5035770;28;20043;-76
2023/11/28 06:20:37;;;;;;;0.25;0.25;;;2.30;99.90;;;;;;5054606;28;20093;-75
2023/11/28 06:23:03;;;;;;;0.20;0.20;;;2.30;99.90;;;;;;5013137;28;20040;-75
2023/11/28 06:25:30;;;;;;;0.20;0.20;;;2.30;99.90;;;;;;5033358;28;20044;-74
2023/11/28 06:27:56;;;;;;;0.35;0.35;;;2.30;99.90;;;;;;5019291;28;20098;-75
2023/11/28 06:30:22;;;;;;;0.43;0.43;;;2.30;99.90;;;;;;5017100;28;20040;-74
2023/11/28 06:32:48;;;;;;;0.30;0.30;;;2.30;99.90;;;;;;5052377;28;20075;-73
2023/11/28 06:35:14;;;;;;;0.60;0.52;;;2.30;99.90;;;;;;5054426;28;20033;-73
2023/11/28 06:37:40;;;;;;;0.10;0.10;;;2.30;99.90;;;;;;5033698;28;20509;-72
2023/11/28 06:40:06;;;;;;;0.45;0.28;;;2.30;99.90;;;;;;5034567;28;20386;-73
2023/11/28 06:42:32;;;;;;;0.20;0.20;;;2.40;99.90;;;;;;5049278;28;20037;-72
2023/11/28 06:44:58;;;;;;;0.20;0.20;;;2.40;99.90;;;;;;5036395;28;20066;-72
2023/11/28 06:47:24;;;;;;;0.10;0.10;;;2.40;99.90;;;;;;5052663;28;20572;-73
2023/11/28 06:49:50;;;;;;;0.35;0.32;;;2.50;99.90;;;;;;5053840;28;21005;-72
2023/11/28 06:52:18;;;;;;;0.85;0.75;;;2.50;99.90;;;;;;5049473;28;20025;-72
2023/11/28 06:54:44;;;;;;;0.57;0.45;;;2.60;99.90;;;;;;5052585;28;20531;-71
2023/11/28 06:57:09;;;;;;;0.45;0.45;;;2.60;99.90;;;;;;5054060;28;20037;-71
2023/11/28 06:59:36;;;;;;;0.10;0.10;;;2.70;99.90;;;;;;5052785;28;20029;-71
2023/11/28 07:02:02;;;;;;;0.40;0.40;;;2.70;99.90;;;;;;5054472;28;20120;-71
2023/11/28 07:04:28;;;;;;;5.82;0.38;;;2.70;99.90;;;;;;5032801;28;20108;-72
2023/11/28 07:06:53;;;;;;;0.38;0.38;;;2.70;99.90;;;;;;5053505;28;20074;-72
2023/11/28 07:09:19;;;;;;;0.43;0.20;;;2.70;99.90;;;;;;5052131;28;20756;-72
2023/11/28 07:11:45;;;;;;;0.20;0.20;;;2.70;99.90;;;;;;5057052;28;20435;-71
2023/11/28 07:14:11;;;;;;;0.50;0.50;;;2.60;99.90;;;;;;5058475;28;20080;-71
2023/11/28 07:16:36;;;;;;;0.10;0.10;;;2.70;99.90;;;;;;5055977;28;20103;-72
2023/11/28 07:19:02;;;;;;;0.13;0.13;;;2.70;99.90;;;;;;5051051;28;20029;-71
2023/11/28 07:21:28;;;;;;;0.28;0.28;;;3.20;99.90;;;;;;5053727;28;20357;-71
2023/11/28 07:23:54;;;;;;;0.10;0.10;;;3.20;99.90;;;;;;5035146;28;20060;-71
2023/11/28 07:26:20;;;;;;;0.20;0.20;;;3.30;99.90;;;;;;5053664;28;20044;-74
2023/11/28 07:28:46;;;;;;;0.65;0.65;;;3.30;99.90;;;;;;5047107;28;20033;-71
2023/11/28 07:31:15;;;;;;;0.50;0.40;;;3.40;99.90;;;;;;5053331;28;20021;-71
2023/11/28 07:33:42;;;;;;;0.25;0.25;;;3.50;99.90;;;;;;5034795;28;20392;-71
2023/11/28 07:36:12;;;;;;;0.13;0.13;;;3.70;99.90;;;;;;5032073;28;20365;-73
2023/11/28 07:38:42;;;;;;;0.63;0.20;;;3.70;99.90;;;;;;5049692;28;20040;-72
2023/11/28 07:41:12;;;;;;;0.20;0.20;;;3.40;99.90;;;;;;5053409;28;20035;-71
2023/11/28 07:43:38;;;;;;;0.10;0.10;;;3.10;99.90;;;;;;5046980;28;20151;-77
2023/11/28 07:46:04;;;;;;;0.10;0.10;;;3.00;99.90;;;;;;5032092;28;20075;-76
2023/11/28 07:48:30;;;;;;;0.93;0.77;;;3.10;99.90;;;;;;5028827;28;20035;-77
2023/11/28 07:50:55;;;;;;;0.10;0.10;;;3.10;99.90;;;;;;5052692;28;20025;-77
2023/11/28 07:53:21;;;;;;;0.40;0.40;;;3.00;99.90;;;;;;5054362;28;20021;-77
2023/11/28 07:55:47;;;;;;;0.68;0.60;;;3.00;99.90;;;;;;5058058;28;20063;-76
2023/11/28 07:58:13;;;;;;;0.13;0.13;;;3.00;99.90;;;;;;5044071;28;20032;-77
2023/11/28 08:00:39;;;;;;;0.47;0.47;;;3.00;99.90;;;;;;5054107;28;20091;-77
2023/11/28 08:03:04;;;;;;;0.10;0.10;;;3.20;99.90;;;;;;5035596;28;20131;-76
2023/11/28 08:05:30;;;;;;;0.50;0.50;;;3.10;99.90;;;;;;5036075;28;20044;-76
2023/11/28 08:07:56;;;;;;;0.20;0.20;;;3.30;99.90;;;;;;5043941;28;20104;-77
2023/11/28 08:10:22;;;;;;;0.85;0.45;;;3.20;99.90;;;;;;5032485;28;20035;-76
2023/11/28 08:12:48;;;;;;;0.17;0.17;;;3.10;99.90;;;;;;5017823;28;20032;-77
2023/11/28 08:15:14;;;;;;;0.10;0.10;;;3.10;99.90;;;;;;5045604;28;20037;-78
2023/11/28 08:17:43;;;;;;;0.70;0.57;;;3.00;99.90;;;;;;5035674;28;20185;-76
2023/11/28 08:20:10;;;;;;;0.90;0.32;;;3.10;99.90;;;;;;5030861;28;20334;-77
2023/11/28 08:22:36;;;;;;;1.08;0.32;;;3.10;99.90;;;;;;5031082;28;20128;-75
2023/11/28 08:25:03;;;;;;;0.20;0.20;;;3.10;99.90;;;;;;5031510;28;20497;-76
2023/11/28 08:27:28;;;;;;;0.20;0.20;;;3.10;99.90;;;;;;5030124;28;20095;-75
2023/11/28 08:29:54;;;;;;;0.15;0.15;;;3.00;99.90;;;;;;5013046;28;20423;-77
2023/11/28 08:32:20;;;;;;;0.30;0.30;;;3.00;99.90;;;;;;5030591;28;20029;-76
2023/11/28 08:34:46;;;;;;;2.47;0.77;;;3.00;99.90;;;;;;5035000;28;20067;-77
2023/11/28 08:37:12;;;;;;;0.10;0.10;;;3.00;99.90;;;;;;5035667;28;20056;-76
2023/11/28 08:39:38;;;;;;;0.25;0.25;;;3.00;99.90;;;;;;5045000;28;20080;-76
2023/11/28 08:42:04;;;;;;;0.30;0.30;;;3.00;99.90;;;;;;5030596;28;20029;-76
2023/11/28 08:44:32;;;;;;;0.22;0.22;;;3.10;99.90;;;;;;5026959;28;20052;-76
2023/11/28 08:47:00;;;;;;;0.82;0.75;;;3.10;99.90;;;;;;5043475;28;20021;-76
2023/11/28 08:49:26;;;;;;;0.15;0.15;;;3.10;99.90;;;;;;5027197;28;20029;-75
2023/11/28 08:51:53;;;;;;;0.60;0.43;;;3.20;99.90;;;;;;5033748;28;20029;-76
2023/11/28 08:54:18;;;;;;;0.57;0.38;;;3.30;99.90;;;;;;5013593;28;20112;-76
2023/11/28 08:56:44;;;;;;;0.70;0.63;;;3.30;99.90;;;;;;5031795;28;20120;-76
2023/11/28 08:59:10;;;;;;;1.17;0.52;;;3.30;99.90;;;;;;5018740;28;20040;-76
2023/11/28 09:01:35;;;;;;;0.52;0.40;;;3.40;99.90;;;;;;5041018;28;20020;-76
2023/11/28 09:04:02;;;;;;;0.38;0.38;;;3.30;99.90;;;;;;5032014;28;20029;-77
2023/11/28 09:06:28;;;;;;;0.32;0.32;;;3.30;99.90;;;;;;5030396;28;20076;-76
2023/11/28 09:08:54;;;;;;;0.20;0.20;;;3.30;99.90;;;;;;5032009;28;20025;-76
2023/11/28 09:11:21;;;;;;;0.63;0.60;;;3.30;99.90;;;;;;5054040;28;20017;-77
2023/11/28 09:13:46;;;;;;;0.40;0.40;;;3.30;99.90;;;;;;5050532;28;20477;-76
2023/11/28 09:16:16;;;;;;;0.50;0.50;;;3.30;99.90;;;;;;5017194;28;20021;-77
2023/11/28 09:18:42;;;;;;;0.45;0.43;;;3.30;99.90;;;;;;5033565;28;20110;-77
2023/11/28 09:21:08;;;;;;;0.50;0.50;;;3.40;99.90;;;;;;5029975;28;20063;-76
2023/11/28 09:23:37;;;;;;;0.30;0.30;;;3.50;99.90;;;;;;5029709;28;20064;-77
2023/11/28 09:26:03;;;;;;;0.60;0.60;;;3.40;99.90;;;;;;5013903;28;20027;-76
2023/11/28 09:28:32;;;;;;;0.93;0.70;;;3.30;99.90;;;;;;5025695;28;20026;-77
2023/11/28 09:30:58;;;;;;;0.55;0.55;;;3.30;99.90;;;;;;5030497;28;20032;-76
2023/11/28 09:33:24;;;;;;;0.55;0.55;;;3.20;99.90;;;;;;5037471;28;20100;-76
2023/11/28 09:35:49;;;;;;;0.10;0.10;;;3.20;99.90;;;;;;5033267;28;20036;-77
2023/11/28 09:38:15;;;;;;;0.32;0.32;;;3.20;99.90;;;;;;5050196;28;20060;-77
2023/11/28 09:40:41;;;;;;;1.30;0.95;;;3.20;99.90;;;;;;5032848;28;20502;-77
2023/11/28 09:43:07;;;;;;;0.30;0.30;;;3.10;99.90;;;;;;5032971;28;20044;-77
2023/11/28 09:45:40;;;;;;;0.95;0.50;;;3.10;99.90;;;;;;5032901;28;20488;-77
2023/11/28 09:48:11;;;;;;;0.28;0.28;;;3.00;99.90;;;;;;5032628;28;20034;-76
2023/11/28 09:50:39;;;;;;;0.10;0.10;;;2.90;99.90;;;;;;5049673;28;20032;-73
2023/11/28 09:53:05;;;;;;;0.47;0.47;;;2.80;99.90;;;;;;5036451;28;20044;-74
2023/11/28 09:55:32;;;;;;;0.90;0.85;;;2.80;99.90;;;;;;5035663;28;20025;-74
2023/11/28 09:58:03;;;;;;;0.20;0.20;;;2.70;99.90;;;;;;5014833;28;20041;-74
2023/11/28 10:00:35;;;;;;;0.50;0.50;;;2.70;99.90;;;;;;5029500;28;20338;-73
2023/11/28 10:03:04;;;;;;;0.88;0.70;;;2.70;99.90;;;;;;5050308;28;20481;-74
2023/11/28 10:05:30;;;;;;;0.40;0.40;;;2.60;99.90;;;;;;5033610;28;20413;-73
2023/11/28 10:07:56;;;;;;;2.08;1.23;;;2.50;99.90;;;;;;5029588;28;20029;-74
2023/11/28 10:10:24;;;;;;;0.73;0.55;;;2.50;99.90;;;;;;5024302;28;20438;-74
2023/11/28 10:12:52;;;;;;;0.75;0.60;;;2.40;99.90;;;;;;5026671;28;20373;-73
2023/11/28 10:15:20;;;;;;;1.27;0.60;;;2.40;99.90;;;;;;5031468;28;20021;-74
2023/11/28 10:17:48;;;;;;;0.25;0.25;;;2.40;99.90;;;;;;5031849;28;20033;-75
2023/11/28 10:20:15;;;;;;;1.85;0.88;;;2.30;99.90;;;;;;5012891;28;20029;-74
2023/11/28 10:22:52;;;;;;;0.60;0.32;;;2.30;99.90;;;;;;5028386;28;20037;-74
2023/11/28 10:25:23;;;;;;;2.28;1.15;;;2.20;99.90;;;;;;5032862;28;20079;-74
2023/11/28 10:27:49;;;;;;;0.30;0.30;;;2.30;99.90;;;;;;5050794;28;20052;-73
2023/11/28 10:30:16;;;;;;;0.65;0.60;;;2.30;99.90;;;;;;5028639;28;20044;-73
2023/11/28 10:32:42;;;;;;;0.20;0.20;;;2.40;99.90;;;;;;5029147;28;20025;-74
2023/11/28 10:35:09;;;;;;;0.60;0.60;;;2.30;99.90;;;;;;5026275;28;20473;-73
2023/11/28 10:37:39;;;;;;;0.73;0.52;;;2.40;99.90;;;;;;5029107;28;20163;-73
2023/11/28 10:40:18;;;;;;;1.50;1.27;;;2.40;99.90;;;;;;5049142;28;20029;-73
2023/11/28 10:42:45;;;;;;;0.20;0.20;;;2.40;99.90;;;;;;5030983;28;20037;-73
2023/11/28 10:45:13;;;;;;;0.25;0.25;;;2.50;99.90;;;;;;5029834;28;20039;-73
2023/11/28 10:47:43;;;;;;;0.50;0.50;;;2.40;99.90;;;;;;5032598;28;20482;-73
2023/11/28 10:50:09;;;;;;;1.27;1.17;;;2.40;99.90;;;;;;5012557;28;20029;-74
2023/11/28 10:52:39;;;;;;;0.50;0.50;;;2.40;99.90;;;;;;5029820;28;20511;-73
2023/11/28 10:55:09;;;;;;;0.80;0.80;;;2.50;99.90;;;;;;5052848;28;20032;-73
2023/11/28 10:58:01;;;;;;;0.35;0.35;;;2.50;99.90;;;;;;5030573;28;20033;-73
2023/11/28 11:00:28;;;;;;;1.50;1.17;;;2.50;99.90;;;;;;5052960;28;20044;-73
2023/11/28 11:02:58;;;;;;;1.42;0.70;;;2.50;99.90;;;;;;5036265;28;20696;-73
2023/11/28 11:05:26;;;;;;;0.47;0.47;;;2.50;99.90;;;;;;5035063;28;20032;-74
2023/11/28 11:07:52;;;;;;;0.35;0.35;;;2.50;99.90;;;;;;5034450;28;20030;-75
2023/11/28 11:10:18;;;;;;;0.68;0.60;;;2.60;99.90;;;;;;5052027;28;20099;-74
2023/11/28 11:12:50;;;;;;;0.32;0.32;;;2.50;99.90;;;;;;5053345;28;20063;-74
2023/11/28 11:15:40;;;;;;;1.30;1.13;;;2.50;99.90;;;;;;5031667;28;20482;-73
2023/11/28 11:18:46;;;;;;;0.52;0.50;;;2.60;99.90;;;;;;5010662;28;20516;-74
2023/11/28 11:21:50;;;;;;;1.17;1.05;;;2.60;99.90;;;;;;5018080;28;20048;-73
2023/11/28 11:24:18;;;;;;;0.65;0.65;;;2.50;99.90;;;;;;5009339;28;20044;-73
2023/11/28 11:26:51;;;;;;;0.30;0.30;;;2.50;99.90;;;;;;5051498;28;20033;-73
2023/11/28 11:29:26;;;;;;;0.45;0.45;;;2.60;99.90;;;;;;5035587;28;20033;-73
2023/11/28 11:31:57;;;;;;;0.75;0.68;;;2.50;99.90;;;;;;5053407;28;20033;-74
2023/11/28 11:34:35;;;;;;;0.98;0.88;;;2.60;99.90;;;;;;5032093;28;20033;-73
2023/11/28 11:37:18;;;;;;;1.42;0.80;;;2.60;99.90;;;;;;5053342;28;20497;-74
2023/11/28 11:39:49;;;;;;;0.63;0.63;;;2.60;99.90;;;;;;5032927;28;20065;-73
2023/11/28 11:42:26;;;;;;;0.80;0.80;;;2.60;99.90;;;;;;5031986;28;20030;-74
2023/11/28 11:44:54;;;;;;;1.17;0.77;;;2.60;99.90;;;;;;5051211;28;20084;-73
2023/11/28 11:47:23;;;;;;;0.93;0.85;;;2.60;99.90;;;;;;5044452;28;20043;-73
2023/11/28 11:49:51;;;;;;;0.73;0.63;;;2.60;99.90;;;;;;5033879;28;20028;-73
2023/11/28 11:52:19;;;;;;;0.55;0.55;;;2.70;99.90;;;;;;5035215;28;20041;-73
2023/11/28 11:54:46;;;;;;;3.58;1.00;;;2.70;99.90;;;;;;5032401;28;20517;-73
2023/11/28 11:57:13;;;;;;;1.05;0.90;;;2.70;99.90;;;;;;5052494;28;20033;-73
2023/11/28 11:59:42;;;;;;;1.90;1.10;;;2.70;99.90;;;;;;5047165;28;20460;-74
2023/11/28 12:02:09;;;;;;;1.95;1.48;;;2.70;99.90;;;;;;5031985;28;20036;-74
2023/11/28 12:04:44;;;;;;;1.50;0.88;;;2.70;99.90;;;;;;5030510;28;20079;-73
2023/11/28 12:07:15;;;;;;;1.65;1.35;;;2.70;99.90;;;;;;5034971;28;20732;-73
2023/11/28 12:09:42;;;;;;;5.60;1.52;;;2.80;99.90;;;;;;5050610;28;20086;-74
2023/11/28 12:12:13;;;;;;;1.75;1.10;;;2.80;99.90;;;;;;5016648;28;20108;-72
2023/11/28 12:14:39;;;;;;;1.20;0.85;;;2.80;99.90;;;;;;5030167;28;20036;-73
2023/11/28 12:17:06;;;;;;;1.85;1.50;;;2.80;99.90;;;;;;5031162;28;20033;-73
2023/11/28 12:19:33;;;;;;;0.85;0.85;;;2.80;99.90;;;;;;5030772;28;20033;-72
2023/11/28 12:22:05;;;;;;;0.43;0.43;;;2.80;99.90;;;;;;5034658;28;20481;-73
2023/11/28 12:24:32;;;;;;;0.63;0.57;;;2.80;99.90;;;;;;5034821;28;20036;-73
2023/11/28 12:27:00;;;;;;;1.00;0.80;;;2.90;99.90;;;;;;5034393;28;20029;-73
2023/11/28 12:29:26;;;;;;;0.68;0.68;;;2.90;99.90;;;;;;5033662;28;20036;-73
2023/11/28 12:31:55;;;;;;;4.28;3.00;;;2.90;99.90;;;;;;5033358;28;20378;-73
2023/11/28 12:34:24;;;;;;;3.40;1.80;;;2.90;99.90;;;;;;5030470;28;20037;-74
2023/11/28 12:36:49;;;;;;;1.33;0.90;;;2.90;99.90;;;;;;5031636;28;20033;-74
2023/11/28 12:39:25;;;;;;;1.00;0.90;;;2.90;99.90;;;;;;5050691;28;20043;-73
2023/11/28 12:41:55;;;;;;;1.17;1.10;;;2.90;99.90;;;;;;5034668;28;20033;-73
2023/11/28 12:44:28;;;;;;;2.22;1.55;;;3.00;99.90;;;;;;5040823;28;20037;-74
2023/11/28 12:46:55;;;;;;;1.27;1.00;;;2.90;99.90;;;;;;5052425;28;20032;-73
2023/11/28 12:49:21;;;;;;;0.57;0.40;;;2.90;99.90;;;;;;5030332;28;20032;-73
2023/11/28 12:51:48;;;;;;;1.35;0.88;;;2.90;99.90;;;;;;5032315;28;20087;-73
2023/11/28 12:54:14;;;;;;;0.60;0.57;;;2.90;99.90;;;;;;5030355;28;20033;-74
2023/11/28 12:56:55;;;;;;;2.97;1.45;;;2.90;99.90;;;;;;5029231;28;20029;-73
2023/11/28 12:59:23;;;;;;;2.03;1.80;;;2.80;99.90;;;;;;5034106;28;20032;-73